sensor_id;sensor_type;location;lat;lon;timestamp;pressure;altitude;pressure_sealevel;temperature;humidity
22311;BME280;11323;49.610;11.016;2024-03-07T00:02:22;98868.59;;;5.68;70.13
22311;BME280;11323;49.610;11.016;2024-03-07T00:07:27;98868.09;;;5.58;70.54
22311;BME280;11323;49.610;11.016;2024-03-07T00:12:27;98863.53;;;5.52;70.40
22311;BME280;11323;49.610;11.016;2024-03-07T00:17:35;98865.94;;;5.47;70.75
22311;BME280;11323;49.610;11.016;2024-03-07T00:22:36;98863.44;;;5.39;70.45
22311;BME280;11323;49.610;11.016;2024-03-07T00:27:37;98862.16;;;5.35;71.01
22311;BME280;11323;49.610;11.016;2024-03-07T00:32:39;98864.19;;;5.33;70.76
22311;BME280;11323;49.610;11.016;2024-03-07T00:37:42;98854.19;;;5.35;70.80
22311;BME280;11323;49.610;11.016;2024-03-07T00:42:43;98849.91;;;5.34;70.82
22311;BME280;11323;49.610;11.016;2024-03-07T00:47:47;98846.22;;;5.35;70.47
22311;BME280;11323;49.610;11.016;2024-03-07T00:52:51;98841.94;;;5.34;70.79
22311;BME280;11323;49.610;11.016;2024-03-07T00:57:55;98836.34;;;5.29;70.38
22311;BME280;11323;49.610;11.016;2024-03-07T01:02:59;98827.72;;;5.20;70.87
22311;BME280;11323;49.610;11.016;2024-03-07T01:07:59;98829.00;;;5.31;70.81
22311;BME280;11323;49.610;11.016;2024-03-07T01:13:01;98829.28;;;5.36;70.24
22311;BME280;11323;49.610;11.016;2024-03-07T01:18:03;98827.09;;;5.46;70.46
22311;BME280;11323;49.610;11.016;2024-03-07T01:23:06;98828.00;;;5.53;70.38
22311;BME280;11323;49.610;11.016;2024-03-07T01:28:10;98830.50;;;5.61;70.50
22311;BME280;11323;49.610;11.016;2024-03-07T01:33:13;98814.38;;;5.69;69.93
22311;BME280;11323;49.610;11.016;2024-03-07T01:38:14;98816.75;;;5.79;70.28
22311;BME280;11323;49.610;11.016;2024-03-07T01:43:18;98812.09;;;5.87;70.08
22311;BME280;11323;49.610;11.016;2024-03-07T01:48:28;98811.09;;;5.88;69.92
22311;BME280;11323;49.610;11.016;2024-03-07T01:53:33;98789.47;;;5.98;69.94
22311;BME280;11323;49.610;11.016;2024-03-07T01:58:35;98800.53;;;6.01;69.71
22311;BME280;11323;49.610;11.016;2024-03-07T02:03:43;98793.19;;;6.03;69.64
22311;BME280;11323;49.610;11.016;2024-03-07T02:08:46;98812.03;;;6.08;69.54
22311;BME280;11323;49.610;11.016;2024-03-07T02:13:49;98775.03;;;6.13;69.57
22311;BME280;11323;49.610;11.016;2024-03-07T02:18:50;98768.69;;;6.14;69.55
22311;BME280;11323;49.610;11.016;2024-03-07T02:23:51;98814.53;;;6.16;69.57
22311;BME280;11323;49.610;11.016;2024-03-07T02:28:55;98808.38;;;6.16;69.52
22311;BME280;11323;49.610;11.016;2024-03-07T02:34:03;98778.53;;;6.20;69.21
22311;BME280;11323;49.610;11.016;2024-03-07T02:39:06;98751.00;;;6.00;68.83
22311;BME280;11323;49.610;11.016;2024-03-07T02:44:07;98754.72;;;6.06;69.14
22311;BME280;11323;49.610;11.016;2024-03-07T02:49:10;98746.94;;;6.04;69.42
22311;BME280;11323;49.610;11.016;2024-03-07T02:54:10;98763.31;;;6.01;69.23
22311;BME280;11323;49.610;11.016;2024-03-07T02:59:11;98739.59;;;6.06;69.40
22311;BME280;11323;49.610;11.016;2024-03-07T03:04:15;98764.56;;;6.05;68.72
22311;BME280;11323;49.610;11.016;2024-03-07T03:09:19;98745.69;;;6.00;69.02
22311;BME280;11323;49.610;11.016;2024-03-07T03:14:22;98782.91;;;5.94;68.39
22311;BME280;11323;49.610;11.016;2024-03-07T03:19:23;98760.75;;;5.87;68.66
22311;BME280;11323;49.610;11.016;2024-03-07T03:24:23;98759.97;;;5.93;69.05
22311;BME280;11323;49.610;11.016;2024-03-07T03:29:27;98755.06;;;5.90;68.98
22311;BME280;11323;49.610;11.016;2024-03-07T03:34:34;98755.25;;;5.88;69.52
22311;BME280;11323;49.610;11.016;2024-03-07T03:39:35;98758.69;;;5.82;68.77
22311;BME280;11323;49.610;11.016;2024-03-07T03:44:39;98759.03;;;5.73;68.89
22311;BME280;11323;49.610;11.016;2024-03-07T03:49:39;98746.47;;;5.60;68.69
22311;BME280;11323;49.610;11.016;2024-03-07T03:54:46;98755.22;;;5.54;69.01
22311;BME280;11323;49.610;11.016;2024-03-07T03:59:47;98750.44;;;5.43;69.18
22311;BME280;11323;49.610;11.016;2024-03-07T04:04:52;98756.09;;;5.33;69.19
22311;BME280;11323;49.610;11.016;2024-03-07T04:09:53;98744.97;;;5.23;69.36
22311;BME280;11323;49.610;11.016;2024-03-07T04:14:54;98752.94;;;5.23;69.20
22311;BME280;11323;49.610;11.016;2024-03-07T04:19:58;98747.56;;;5.17;68.89
22311;BME280;11323;49.610;11.016;2024-03-07T04:25:03;98745.13;;;5.15;69.11
22311;BME280;11323;49.610;11.016;2024-03-07T04:30:07;98755.88;;;5.07;69.37
22311;BME280;11323;49.610;11.016;2024-03-07T04:35:09;98763.78;;;5.01;69.44
22311;BME280;11323;49.610;11.016;2024-03-07T04:40:11;98757.34;;;4.89;69.17
22311;BME280;11323;49.610;11.016;2024-03-07T04:45:18;98759.69;;;4.77;69.56
22311;BME280;11323;49.610;11.016;2024-03-07T04:50:19;98758.97;;;4.69;69.50
22311;BME280;11323;49.610;11.016;2024-03-07T04:55:23;98759.28;;;4.59;69.71
22311;BME280;11323;49.610;11.016;2024-03-07T05:00:26;98760.66;;;4.55;70.05
22311;BME280;11323;49.610;11.016;2024-03-07T05:05:29;98762.03;;;4.51;69.57
22311;BME280;11323;49.610;11.016;2024-03-07T05:10:30;98760.63;;;4.48;69.76
22311;BME280;11323;49.610;11.016;2024-03-07T05:15:31;98752.38;;;4.43;69.85
22311;BME280;11323;49.610;11.016;2024-03-07T05:20:35;98752.31;;;4.37;70.01
22311;BME280;11323;49.610;11.016;2024-03-07T05:25:39;98758.25;;;4.39;69.74
22311;BME280;11323;49.610;11.016;2024-03-07T05:30:43;98748.84;;;4.36;70.09
22311;BME280;11323;49.610;11.016;2024-03-07T05:35:50;98743.53;;;4.36;69.91
22311;BME280;11323;49.610;11.016;2024-03-07T05:41:14;98732.69;;;4.31;69.96
22311;BME280;11323;49.610;11.016;2024-03-07T05:46:29;98750.50;;;4.37;70.35
22311;BME280;11323;49.610;11.016;2024-03-07T05:51:32;98771.13;;;4.42;69.82
22311;BME280;11323;49.610;11.016;2024-03-07T05:56:42;98766.13;;;4.32;69.76
22311;BME280;11323;49.610;11.016;2024-03-07T06:01:48;98750.72;;;4.21;69.75
22311;BME280;11323;49.610;11.016;2024-03-07T06:07:09;98772.00;;;4.28;70.03
22311;BME280;11323;49.610;11.016;2024-03-07T06:12:21;98761.22;;;4.29;70.03
22311;BME280;11323;49.610;11.016;2024-03-07T06:17:37;98755.09;;;4.29;70.17
22311;BME280;11323;49.610;11.016;2024-03-07T06:23:00;98755.22;;;4.42;69.69
22311;BME280;11323;49.610;11.016;2024-03-07T06:28:07;98753.94;;;4.52;70.27
22311;BME280;11323;49.610;11.016;2024-03-07T06:33:39;98753.53;;;4.55;69.89
22311;BME280;11323;49.610;11.016;2024-03-07T06:38:46;98751.66;;;4.71;70.05
22311;BME280;11323;49.610;11.016;2024-03-07T06:43:52;98748.13;;;4.85;69.37
22311;BME280;11323;49.610;11.016;2024-03-07T06:49:20;98748.69;;;5.01;69.47
22311;BME280;11323;49.610;11.016;2024-03-07T06:54:36;98756.16;;;5.19;69.12
22311;BME280;11323;49.610;11.016;2024-03-07T06:59:48;98752.94;;;5.23;69.04
22311;BME280;11323;49.610;11.016;2024-03-07T07:04:55;98768.19;;;5.36;68.69
22311;BME280;11323;49.610;11.016;2024-03-07T07:10:55;98766.53;;;5.35;68.88
22311;BME280;11323;49.610;11.016;2024-03-07T07:16:09;98758.97;;;5.38;68.67
22311;BME280;11323;49.610;11.016;2024-03-07T07:21:23;98774.44;;;5.56;68.78
22311;BME280;11323;49.610;11.016;2024-03-07T07:26:29;98744.94;;;5.44;68.51
22311;BME280;11323;49.610;11.016;2024-03-07T07:32:00;98766.31;;;5.64;68.94
22311;BME280;11323;49.610;11.016;2024-03-07T07:37:04;98750.38;;;5.64;68.40
22311;BME280;11323;49.610;11.016;2024-03-07T07:42:17;98746.75;;;5.72;68.16
22311;BME280;11323;49.610;11.016;2024-03-07T07:47:39;98742.28;;;5.79;68.33
22311;BME280;11323;49.610;11.016;2024-03-07T07:53:14;98731.25;;;5.82;68.30
22311;BME280;11323;49.610;11.016;2024-03-07T07:58:17;98735.00;;;5.87;68.33
22311;BME280;11323;49.610;11.016;2024-03-07T08:03:30;98750.22;;;6.00;68.01
22311;BME280;11323;49.610;11.016;2024-03-07T08:08:38;98750.16;;;5.93;67.78
22311;BME280;11323;49.610;11.016;2024-03-07T08:14:06;98746.09;;;5.97;67.88
22311;BME280;11323;49.610;11.016;2024-03-07T08:19:21;98742.88;;;6.08;67.86
22311;BME280;11323;49.610;11.016;2024-03-07T08:24:22;98747.19;;;6.16;67.58
22311;BME280;11323;49.610;11.016;2024-03-07T08:29:32;98732.50;;;6.26;67.51
22311;BME280;11323;49.610;11.016;2024-03-07T08:34:35;98750.78;;;6.49;67.27
22311;BME280;11323;49.610;11.016;2024-03-07T08:39:39;98740.59;;;6.59;67.60
22311;BME280;11323;49.610;11.016;2024-03-07T08:44:40;98742.25;;;6.67;67.23
22311;BME280;11323;49.610;11.016;2024-03-07T08:49:41;98730.78;;;6.73;66.92
22311;BME280;11323;49.610;11.016;2024-03-07T08:54:42;98734.09;;;6.88;66.73
22311;BME280;11323;49.610;11.016;2024-03-07T08:59:44;98729.78;;;7.13;67.13
22311;BME280;11323;49.610;11.016;2024-03-07T09:04:45;98725.88;;;7.22;66.96
22311;BME280;11323;49.610;11.016;2024-03-07T09:09:46;98729.81;;;7.39;66.43
22311;BME280;11323;49.610;11.016;2024-03-07T09:14:47;98729.56;;;7.47;66.46
22311;BME280;11323;49.610;11.016;2024-03-07T09:19:48;98732.03;;;7.42;66.48
22311;BME280;11323;49.610;11.016;2024-03-07T09:24:49;98734.06;;;7.53;66.15
22311;BME280;11323;49.610;11.016;2024-03-07T09:29:50;98713.97;;;7.70;66.28
22311;BME280;11323;49.610;11.016;2024-03-07T09:34:51;98713.91;;;7.83;66.09
22311;BME280;11323;49.610;11.016;2024-03-07T09:39:52;98710.59;;;7.88;65.82
22311;BME280;11323;49.610;11.016;2024-03-07T09:44:53;98703.19;;;7.96;65.82
22311;BME280;11323;49.610;11.016;2024-03-07T09:49:56;98704.25;;;7.95;65.88
22311;BME280;11323;49.610;11.016;2024-03-07T09:54:58;98690.78;;;8.21;65.41
22311;BME280;11323;49.610;11.016;2024-03-07T10:00:00;98696.88;;;8.42;65.84
22311;BME280;11323;49.610;11.016;2024-03-07T10:05:15;98692.66;;;8.59;65.32
22311;BME280;11323;49.610;11.016;2024-03-07T10:10:20;98693.72;;;8.82;64.39
22311;BME280;11323;49.610;11.016;2024-03-07T10:15:22;98689.38;;;9.13;64.31
22311;BME280;11323;49.610;11.016;2024-03-07T10:20:27;98701.72;;;9.14;63.19
22311;BME280;11323;49.610;11.016;2024-03-07T10:25:28;98687.97;;;8.79;64.29
22311;BME280;11323;49.610;11.016;2024-03-07T10:30:29;98690.50;;;8.74;64.03
22311;BME280;11323;49.610;11.016;2024-03-07T10:35:30;98676.53;;;8.72;64.04
22311;BME280;11323;49.610;11.016;2024-03-07T10:40:31;98675.94;;;8.70;63.59
22311;BME280;11323;49.610;11.016;2024-03-07T10:45:33;98673.25;;;8.70;63.83
22311;BME280;11323;49.610;11.016;2024-03-07T11:01:59;98664.75;;;8.55;64.60
22311;BME280;11323;49.610;11.016;2024-03-07T11:07:11;98664.34;;;8.51;64.78
22311;BME280;11323;49.610;11.016;2024-03-07T11:12:13;98663.09;;;8.54;64.67
22311;BME280;11323;49.610;11.016;2024-03-07T11:17:15;98651.66;;;8.47;65.14
22311;BME280;11323;49.610;11.016;2024-03-07T11:22:29;98650.03;;;8.46;64.48
22311;BME280;11323;49.610;11.016;2024-03-07T11:27:30;98650.44;;;8.43;64.12
22311;BME280;11323;49.610;11.016;2024-03-07T11:32:35;98645.22;;;8.54;64.09
22311;BME280;11323;49.610;11.016;2024-03-07T11:37:43;98637.06;;;8.74;64.06
22311;BME280;11323;49.610;11.016;2024-03-07T11:42:48;98636.22;;;8.80;63.14
22311;BME280;11323;49.610;11.016;2024-03-07T11:47:49;98623.88;;;8.79;63.38
22311;BME280;11323;49.610;11.016;2024-03-07T11:52:50;98614.84;;;8.80;62.81
22311;BME280;11323;49.610;11.016;2024-03-07T11:57:51;98608.66;;;8.79;62.39
22311;BME280;11323;49.610;11.016;2024-03-07T12:02:54;98610.63;;;8.90;62.32
22311;BME280;11323;49.610;11.016;2024-03-07T12:07:56;98610.00;;;8.88;62.15
22311;BME280;11323;49.610;11.016;2024-03-07T12:12:58;98604.81;;;9.00;61.94
22311;BME280;11323;49.610;11.016;2024-03-07T12:18:01;98598.63;;;8.99;61.81
22311;BME280;11323;49.610;11.016;2024-03-07T12:23:03;98603.75;;;9.01;61.49
22311;BME280;11323;49.610;11.016;2024-03-07T12:28:13;98593.94;;;8.95;61.46
22311;BME280;11323;49.610;11.016;2024-03-07T12:33:21;98591.72;;;8.92;62.14
22311;BME280;11323;49.610;11.016;2024-03-07T12:38:25;98596.94;;;9.05;61.95
22311;BME280;11323;49.610;11.016;2024-03-07T12:43:34;98577.78;;;9.08;61.42
22311;BME280;11323;49.610;11.016;2024-03-07T12:48:35;98585.41;;;9.04;62.25
22311;BME280;11323;49.610;11.016;2024-03-07T12:53:39;98576.81;;;9.02;61.81
22311;BME280;11323;49.610;11.016;2024-03-07T12:58:39;98584.06;;;8.95;62.03
22311;BME280;11323;49.610;11.016;2024-03-07T13:03:40;98585.09;;;8.94;61.40
22311;BME280;11323;49.610;11.016;2024-03-07T13:08:44;98574.91;;;8.85;61.42
22311;BME280;11323;49.610;11.016;2024-03-07T13:13:48;98581.94;;;8.79;61.94
22311;BME280;11323;49.610;11.016;2024-03-07T13:18:49;98572.22;;;8.67;61.39
22311;BME280;11323;49.610;11.016;2024-03-07T13:23:51;98573.72;;;8.81;61.77
22311;BME280;11323;49.610;11.016;2024-03-07T13:28:55;98578.78;;;8.89;61.57
22311;BME280;11323;49.610;11.016;2024-03-07T13:33:56;98564.81;;;8.87;61.75
22311;BME280;11323;49.610;11.016;2024-03-07T13:38:57;98574.63;;;8.93;61.29
22311;BME280;11323;49.610;11.016;2024-03-07T13:43:59;98558.97;;;8.96;61.76
22311;BME280;11323;49.610;11.016;2024-03-07T13:49:01;98565.00;;;8.92;60.95
22311;BME280;11323;49.610;11.016;2024-03-07T13:54:12;98562.94;;;8.94;61.53
22311;BME280;11323;49.610;11.016;2024-03-07T14:23:04;98554.72;;;8.89;61.27
22311;BME280;11323;49.610;11.016;2024-03-07T14:34:10;98557.50;;;8.82;61.35
22311;BME280;11323;49.610;11.016;2024-03-07T14:39:15;98552.34;;;8.81;61.11
22311;BME280;11323;49.610;11.016;2024-03-07T14:44:22;98555.25;;;8.79;61.55
22311;BME280;11323;49.610;11.016;2024-03-07T14:49:25;98551.00;;;8.72;61.52
22311;BME280;11323;49.610;11.016;2024-03-07T14:54:27;98552.03;;;8.71;61.31
22311;BME280;11323;49.610;11.016;2024-03-07T14:59:31;98554.13;;;8.69;60.73
22311;BME280;11323;49.610;11.016;2024-03-07T15:04:33;98553.06;;;8.70;60.91
22311;BME280;11323;49.610;11.016;2024-03-07T15:09:33;98547.25;;;8.55;61.03
22311;BME280;11323;49.610;11.016;2024-03-07T15:14:34;98558.34;;;8.52;60.61
22311;BME280;11323;49.610;11.016;2024-03-07T15:19:35;98546.91;;;8.45;59.80
22311;BME280;11323;49.610;11.016;2024-03-07T15:24:36;98543.03;;;8.41;60.22
22311;BME280;11323;49.610;11.016;2024-03-07T15:29:39;98552.69;;;8.42;60.40
22311;BME280;11323;49.610;11.016;2024-03-07T15:34:40;98546.19;;;8.31;60.41
22311;BME280;11323;49.610;11.016;2024-03-07T15:39:41;98543.03;;;8.41;60.34
22311;BME280;11323;49.610;11.016;2024-03-07T15:44:48;98543.66;;;8.43;60.79
22311;BME280;11323;49.610;11.016;2024-03-07T15:49:49;98538.56;;;8.35;60.50
22311;BME280;11323;49.610;11.016;2024-03-07T15:54:50;98535.09;;;8.34;60.85
22311;BME280;11323;49.610;11.016;2024-03-07T15:59:52;98529.78;;;8.34;60.72
22311;BME280;11323;49.610;11.016;2024-03-07T16:04:54;98534.69;;;8.31;60.21
22311;BME280;11323;49.610;11.016;2024-03-07T16:09:57;98532.06;;;8.24;60.66
22311;BME280;11323;49.610;11.016;2024-03-07T16:14:59;98538.88;;;8.20;60.46
22311;BME280;11323;49.610;11.016;2024-03-07T16:19:59;98533.09;;;8.23;61.24
22311;BME280;11323;49.610;11.016;2024-03-07T16:25:00;98546.41;;;8.30;61.33
22311;BME280;11323;49.610;11.016;2024-03-07T16:30:05;98541.31;;;8.28;61.08
22311;BME280;11323;49.610;11.016;2024-03-07T16:35:11;98546.66;;;8.21;60.96
22311;BME280;11323;49.610;11.016;2024-03-07T16:40:15;98539.72;;;8.14;61.12
22311;BME280;11323;49.610;11.016;2024-03-07T16:45:17;98547.97;;;8.12;61.30
22311;BME280;11323;49.610;11.016;2024-03-07T16:50:24;98545.63;;;7.91;60.77
22311;BME280;11323;49.610;11.016;2024-03-07T16:55:28;98547.25;;;7.92;60.95
22311;BME280;11323;49.610;11.016;2024-03-07T17:00:30;98542.53;;;7.88;60.27
22311;BME280;11323;49.610;11.016;2024-03-07T17:05:36;98542.00;;;7.79;61.14
22311;BME280;11323;49.610;11.016;2024-03-07T17:10:39;98536.28;;;7.76;61.16
22311;BME280;11323;49.610;11.016;2024-03-07T17:15:41;98540.03;;;7.68;60.58
22311;BME280;11323;49.610;11.016;2024-03-07T17:20:46;98548.53;;;7.83;60.57
22311;BME280;11323;49.610;11.016;2024-03-07T17:25:46;98555.56;;;7.71;59.79
22311;BME280;11323;49.610;11.016;2024-03-07T17:30:53;98547.81;;;7.63;60.16
22311;BME280;11323;49.610;11.016;2024-03-07T17:35:56;98550.13;;;7.53;60.30
22311;BME280;11323;49.610;11.016;2024-03-07T17:40:58;98552.00;;;7.53;60.72
22311;BME280;11323;49.610;11.016;2024-03-07T17:45:59;98543.16;;;7.52;60.41
22311;BME280;11323;49.610;11.016;2024-03-07T17:51:02;98560.53;;;7.61;60.21
22311;BME280;11323;49.610;11.016;2024-03-07T17:56:05;98548.28;;;7.54;60.48
22311;BME280;11323;49.610;11.016;2024-03-07T18:01:06;98562.59;;;7.59;60.93
22311;BME280;11323;49.610;11.016;2024-03-07T18:06:07;98564.66;;;7.57;60.17
22311;BME280;11323;49.610;11.016;2024-03-07T18:11:09;98556.88;;;7.62;60.45
22311;BME280;11323;49.610;11.016;2024-03-07T18:16:16;98563.41;;;7.66;60.92
22311;BME280;11323;49.610;11.016;2024-03-07T18:21:18;98554.00;;;7.57;60.38
22311;BME280;11323;49.610;11.016;2024-03-07T18:26:18;98558.19;;;7.40;60.23
22311;BME280;11323;49.610;11.016;2024-03-07T18:31:19;98548.41;;;7.27;60.84
22311;BME280;11323;49.610;11.016;2024-03-07T18:36:29;98548.44;;;7.08;60.43
22311;BME280;11323;49.610;11.016;2024-03-07T18:41:31;98542.28;;;7.14;60.53
22311;BME280;11323;49.610;11.016;2024-03-07T18:46:32;98528.97;;;7.14;61.02
22311;BME280;11323;49.610;11.016;2024-03-07T18:51:32;98533.69;;;6.99;60.59
22311;BME280;11323;49.610;11.016;2024-03-07T18:56:33;98541.06;;;6.97;60.75
22311;BME280;11323;49.610;11.016;2024-03-07T19:01:35;98537.41;;;6.98;60.47
22311;BME280;11323;49.610;11.016;2024-03-07T19:06:37;98541.50;;;6.94;60.90
22311;BME280;11323;49.610;11.016;2024-03-07T19:11:44;98544.78;;;6.89;61.05
22311;BME280;11323;49.610;11.016;2024-03-07T19:16:50;98541.94;;;6.84;60.82
22311;BME280;11323;49.610;11.016;2024-03-07T19:21:53;98538.25;;;6.79;61.35
22311;BME280;11323;49.610;11.016;2024-03-07T19:26:54;98529.69;;;6.64;61.10
22311;BME280;11323;49.610;11.016;2024-03-07T19:31:56;98534.59;;;6.67;61.04
22311;BME280;11323;49.610;11.016;2024-03-07T19:36:57;98537.88;;;6.69;61.08
22311;BME280;11323;49.610;11.016;2024-03-07T19:41:58;98534.59;;;6.67;61.56
22311;BME280;11323;49.610;11.016;2024-03-07T19:46:59;98534.19;;;6.57;61.11
22311;BME280;11323;49.610;11.016;2024-03-07T19:52:01;98538.28;;;6.53;61.68
22311;BME280;11323;49.610;11.016;2024-03-07T19:57:10;98534.19;;;6.44;61.52
22311;BME280;11323;49.610;11.016;2024-03-07T20:02:11;98529.31;;;6.41;61.87
22311;BME280;11323;49.610;11.016;2024-03-07T20:07:12;98517.63;;;6.28;61.71
22311;BME280;11323;49.610;11.016;2024-03-07T20:12:13;98524.78;;;6.21;61.54
22311;BME280;11323;49.610;11.016;2024-03-07T20:17:17;98528.06;;;6.17;61.17
22311;BME280;11323;49.610;11.016;2024-03-07T20:22:17;98522.72;;;6.23;61.64
22311;BME280;11323;49.610;11.016;2024-03-07T20:27:19;98521.91;;;6.16;61.89
22311;BME280;11323;49.610;11.016;2024-03-07T20:32:21;98499.03;;;6.15;61.94
22311;BME280;11323;49.610;11.016;2024-03-07T20:37:36;98494.28;;;6.04;61.83
22311;BME280;11323;49.610;11.016;2024-03-07T20:42:40;98497.75;;;5.98;62.22
22311;BME280;11323;49.610;11.016;2024-03-07T20:47:47;98498.56;;;5.92;62.05
22311;BME280;11323;49.610;11.016;2024-03-07T20:52:49;98490.81;;;5.97;61.81
22311;BME280;11323;49.610;11.016;2024-03-07T20:57:55;98499.41;;;5.99;62.09
22311;BME280;11323;49.610;11.016;2024-03-07T21:03:04;98499.00;;;5.96;62.09
22311;BME280;11323;49.610;11.016;2024-03-07T21:08:12;98482.84;;;5.97;62.16
22311;BME280;11323;49.610;11.016;2024-03-07T21:13:20;98496.94;;;6.04;62.17
22311;BME280;11323;49.610;11.016;2024-03-07T21:18:24;98467.50;;;5.86;62.06
22311;BME280;11323;49.610;11.016;2024-03-07T21:23:25;98486.50;;;6.03;62.24
22311;BME280;11323;49.610;11.016;2024-03-07T21:28:27;98490.38;;;5.87;62.20
22311;BME280;11323;49.610;11.016;2024-03-07T21:33:30;98475.63;;;5.78;62.47
22311;BME280;11323;49.610;11.016;2024-03-07T21:38:31;98481.75;;;5.72;62.67
22311;BME280;11323;49.610;11.016;2024-03-07T21:43:36;98474.78;;;5.71;62.44
22311;BME280;11323;49.610;11.016;2024-03-07T21:48:40;98473.16;;;5.70;62.82
22311;BME280;11323;49.610;11.016;2024-03-07T21:53:50;98486.66;;;5.75;62.87
22311;BME280;11323;49.610;11.016;2024-03-07T21:58:52;98464.16;;;5.65;62.25
22311;BME280;11323;49.610;11.016;2024-03-07T22:03:55;98465.34;;;5.56;63.03
22311;BME280;11323;49.610;11.016;2024-03-07T22:08:58;98463.69;;;5.48;62.79
22311;BME280;11323;49.610;11.016;2024-03-07T22:14:00;98471.09;;;5.59;63.13
22311;BME280;11323;49.610;11.016;2024-03-07T22:19:28;98480.09;;;5.65;62.69
22311;BME280;11323;49.610;11.016;2024-03-07T22:24:31;98475.38;;;5.60;63.12
22311;BME280;11323;49.610;11.016;2024-03-07T22:29:38;98469.88;;;5.55;63.20
22311;BME280;11323;49.610;11.016;2024-03-07T22:34:47;98464.72;;;5.53;63.13
22311;BME280;11323;49.610;11.016;2024-03-07T22:39:51;98469.47;;;5.52;63.21
22311;BME280;11323;49.610;11.016;2024-03-07T22:44:54;98472.28;;;5.50;62.92
22311;BME280;11323;49.610;11.016;2024-03-07T22:49:59;98445.09;;;5.41;63.59
22311;BME280;11323;49.610;11.016;2024-03-07T22:55:00;98444.06;;;5.42;63.69
22311;BME280;11323;49.610;11.016;2024-03-07T23:00:04;98451.63;;;5.39;63.25
22311;BME280;11323;49.610;11.016;2024-03-07T23:05:19;98435.50;;;5.34;63.72
22311;BME280;11323;49.610;11.016;2024-03-07T23:10:21;98425.84;;;5.20;63.70
22311;BME280;11323;49.610;11.016;2024-03-07T23:15:23;98428.09;;;5.23;63.65
22311;BME280;11323;49.610;11.016;2024-03-07T23:20:27;98416.44;;;5.11;63.91
22311;BME280;11323;49.610;11.016;2024-03-07T23:25:35;98426.88;;;5.25;63.69
22311;BME280;11323;49.610;11.016;2024-03-07T23:30:39;98405.38;;;5.01;64.38
22311;BME280;11323;49.610;11.016;2024-03-07T23:35:46;98407.81;;;5.02;64.22
22311;BME280;11323;49.610;11.016;2024-03-07T23:40:50;98393.69;;;4.89;64.45
22311;BME280;11323;49.610;11.016;2024-03-07T23:45:51;98401.91;;;5.07;64.13
22311;BME280;11323;49.610;11.016;2024-03-07T23:50:52;98403.97;;;5.18;64.36
22311;BME280;11323;49.610;11.016;2024-03-07T23:55:55;98391.28;;;5.07;64.28
